Decoded Metar for KDMW (CARROLL CNTY REG in MD, USA) (IATA:DMW) | Meteo·Mobile Aviation Weather
aviador You're here:

KDMW Decoded Metar

CARROLL CNTY REG in MD, USA
Report Time2019-01-18 13:20:00
UTC Time2019-01-18 13:33:33
Flight Rules lifr LIFR
WindCalm
Visibility402 m
Phenomena:Light Snow
Clouds:Overcast 002 Hf
Ceiling200 ft
Temp-1°C (ISA -14)
Dew Point-1°C (100% RH)
AAT-3.1°C
QNH1018 hPa
Density Alt-1,063 ft
Elevation791 ft
Report Wrong Elevation
Raw Report
METAR KDMW 181320Z AUTO 00000KT 1/4SM -SN OVC002 M01/M01 A3005 RMK
AO2=

Extra information for KDMW:More info

Metar Taf Metar & Taf Last 4 Metars F.Rules Stats Wind Profile Meteogram Temp Stats Airport Information Weather charts Add Link Nearby VenuesMetar ALERT Operation Metar Decoded Social comments

AIRNAV info for KDMW